Cabo Kamui — 3ETC4 — position and weather

sailwx.info

Track history (hours):
 
Tides and Currents Weather Stations Pressure Air Temp Water Temp Dewpoint Dewpoint Depression Visibility Wind Speed Wind Dir Waves Ship Positions

Cabo Kamui

Last reported at 2018-Jan-06 07:15 UTC. Time now 2018-Feb-19 06:21 UTC.
Position N 27°41' W 115°55'.
Warning: this ship's position is 43 days out of date.

Length 228 m; draft 8.5 m.

Type: Tanker. MMSI: 370361000.

Date/timePositionNaut miles runAvg speedWind from/ knotsBaromVisibWave heightAir tempDewpointWater temp
2018-Jan-06 07:15N 27°41' W 115°55'613.5
2018-Jan-06 06:49N 27°46' W 115°58'20613.9
2018-Jan-05 16:03N 30°60' W 117°17'8514.1
2018-Jan-05 10:00N 32°22' W 117°44'1113.8
2018-Jan-05 09:13N 32°32' W 117°49'313.7
2018-Jan-05 09:00N 32°35' W 117°50'714.0
2018-Jan-05 08:31N 32°42' W 117°52'714.2
2018-Jan-05 08:01N 32°48' W 117°54'714.0
2018-Jan-05 07:30N 32°55' W 117°57'714.1
2018-Jan-05 07:01N 33°02' W 117°59'714.0
2018-Jan-05 06:30N 33°09' W 118°02'713.7
2018-Jan-05 06:01N 33°15' W 118°05'2111.5
2018-Jan-05 04:11N 33°35' W 118°13'8 3.1
2018-Jan-05 01:36N 33°43' W 118°12'0 0.1
2018-Jan-05 01:30N 33°43' W 118°12'0 0.0
2018-Jan-04 23:33N 33°43' W 118°12'0 0.1
2018-Jan-04 23:27N 33°43' W 118°12'0 0.0
2018-Jan-04 22:57N 33°43' W 118°12'0 0.0
2018-Jan-04 22:30N 33°43' W 118°12'0 0.1
2018-Jan-04 21:51N 33°43' W 118°12'0 0.1
2018-Jan-04 21:27N 33°43' W 118°12'0 0.0
2018-Jan-04 21:01N 33°43' W 118°12'0 0.0
2018-Jan-04 20:30N 33°43' W 118°12'0 0.1
2018-Jan-04 20:00N 33°43' W 118°12'0 0.1
2018-Jan-04 19:30N 33°43' W 118°12'0 0.0
2018-Jan-04 19:00N 33°43' W 118°12'0 0.0
2018-Jan-04 18:30N 33°43' W 118°12'0 0.0
2018-Jan-04 18:00N 33°43' W 118°12'0 0.1
2018-Jan-04 17:30N 33°43' W 118°12'0 0.0
2018-Jan-04 16:45N 33°43' W 118°12'0 0.1
2018-Jan-04 16:30N 33°43' W 118°12'0 0.1
2018-Jan-04 16:00N 33°43' W 118°12'0 0.1
2018-Jan-04 15:30N 33°43' W 118°12'1 0.6
2018-Jan-04 14:38N 33°42' W 118°12'1 5.9
2018-Jan-04 14:30N 33°42' W 118°13'3 6.0
2018-Jan-04 14:00N 33°43' W 118°16'1 0.4
2018-Jan-04 11:10N 33°44' W 118°16'0 0.0
2018-Jan-04 10:52N 33°44' W 118°16'0 0.0
2018-Jan-04 10:22N 33°44' W 118°16'0 0.0
2018-Jan-04 09:52N 33°44' W 118°16'0 0.0
2018-Jan-04 07:10N 33°44' W 118°16'0 0.0
2018-Jan-04 06:58N 33°44' W 118°16'0 0.0
2018-Jan-04 06:22N 33°44' W 118°16'0 0.0
2018-Jan-04 05:58N 33°44' W 118°16'0 0.0
2018-Jan-04 05:28N 33°44' W 118°16'0 0.0
2018-Jan-03 17:22N 33°44' W 118°16'0 0.0
2018-Jan-03 16:58N 33°44' W 118°16'0 0.0
2018-Jan-03 11:34N 33°44' W 118°16'0 0.0
2018-Jan-03 11:16N 33°44' W 118°16'0 0.0
2018-Jan-03 05:04N 33°44' W 118°16'0 0.0
2018-Jan-03 04:46N 33°44' W 118°16'0 0.0
2018-Jan-03 04:28N 33°44' W 118°16'0 0.0
2018-Jan-02 20:28N 33°44' W 118°16'0 0.0
2018-Jan-02 19:58N 33°44' W 118°16'0 0.0
2018-Jan-02 19:28N 33°44' W 118°16'0 0.0
2018-Jan-02 17:52N 33°44' W 118°16'0 0.0
2018-Jan-02 17:30N 33°44' W 118°16'0 0.0
2018-Jan-02 17:00N 33°44' W 118°16'0 0.1
2018-Jan-02 16:30N 33°44' W 118°16'0 1.0
2018-Jan-02 16:00N 33°44' W 118°16'2 3.0
2018-Jan-02 15:18N 33°43' W 118°14'0 0.0
2018-Jan-02 06:46N 33°43' W 118°14'0 0.1
2018-Jan-02 06:16N 33°43' W 118°14'0 0.2
2018-Jan-02 05:52N 33°43' W 118°14'1 4.1
2018-Jan-02 05:30N 33°45' W 118°13'6 0.2
2018-Jan-01 05:45N 33°39' W 118°11'2 7.8
2018-Jan-01 05:30N 33°37' W 118°10'611.6
2018-Jan-01 05:00N 33°32' W 118°08'1312.4
2018-Jan-01 03:59N 33°20' W 118°03'612.4
2018-Jan-01 03:28N 33°14' W 118°01'612.6
2018-Jan-01 03:00N 33°08' W 117°60'612.4
2018-Jan-01 02:30N 33°02' W 117°58'612.4
2018-Jan-01 02:00N 32°56' W 117°56'612.4
2018-Jan-01 01:30N 32°50' W 117°55'1312.5
2018-Jan-01 00:30N 32°38' W 117°51'24 3.9
2017-Dec-31 18:20N 32°14' W 117°45'0 0.6
2017-Dec-31 18:00N 32°14' W 117°45'0 0.4
2017-Dec-31 17:22N 32°15' W 117°45'511.4
2017-Dec-31 16:56N 32°10' W 117°44'2212.8
2017-Dec-31 15:11N 31°48' W 117°39'513.0
2017-Dec-31 14:50N 31°43' W 117°38'613.0
2017-Dec-31 14:22N 31°37' W 117°37'513.1
2017-Dec-31 14:00N 31°33' W 117°36'2913.2
2017-Dec-31 11:50N 31°04' W 117°30'413.1
2017-Dec-31 11:29N 30°60' W 117°29'1313.2
2017-Dec-31 10:29N 30°47' W 117°26'713.4
2017-Dec-31 10:00N 30°40' W 117°25'713.2
2017-Dec-31 09:30N 30°34' W 117°24'712.8
2017-Dec-31 08:59N 30°27' W 117°23'8013.0
2017-Dec-31 02:52N 29°09' W 117°06'2313.4
2017-Dec-31 01:11N 28°49' W 116°54'8813.2
2017-Dec-30 18:33N 27°33' W 116°04'112.8
2017-Dec-30 18:30N 27°32' W 116°04'1312.6
2017-Dec-30 17:27N 27°21' W 115°56'1712.6
2017-Dec-30 16:07N 27°06' W 115°47'  
Track history (hours):
 
Tides and Currents Weather Stations Pressure Air Temp Water Temp Dewpoint Dewpoint Depression Visibility Wind Speed Wind Dir Waves Ship Positions

Cabo Kamui

Last reported at 2018-Jan-06 07:15 UTC. Time now 2018-Feb-19 06:21 UTC.
Position N 27°41' W 115°55'.
Warning: this ship's position is 43 days out of date.

Length 228 m; draft 8.5 m.

Type: Tanker. MMSI: 370361000.

Date/timePositionNaut miles runAvg speedWind from/ knotsBaromVisibWave heightAir tempDewpointWater temp
2018-Jan-06 07:15N 27°41' W 115°55'613.5
2018-Jan-06 06:49N 27°46' W 115°58'20613.9
2018-Jan-05 16:03N 30°60' W 117°17'8514.1
2018-Jan-05 10:00N 32°22' W 117°44'1113.8
2018-Jan-05 09:13N 32°32' W 117°49'313.7
2018-Jan-05 09:00N 32°35' W 117°50'714.0
2018-Jan-05 08:31N 32°42' W 117°52'714.2
2018-Jan-05 08:01N 32°48' W 117°54'714.0
2018-Jan-05 07:30N 32°55' W 117°57'714.1
2018-Jan-05 07:01N 33°02' W 117°59'714.0
2018-Jan-05 06:30N 33°09' W 118°02'713.7
2018-Jan-05 06:01N 33°15' W 118°05'2111.5
2018-Jan-05 04:11N 33°35' W 118°13'8 3.1
2018-Jan-05 01:36N 33°43' W 118°12'0 0.1
2018-Jan-05 01:30N 33°43' W 118°12'0 0.0
2018-Jan-04 23:33N 33°43' W 118°12'0 0.1
2018-Jan-04 23:27N 33°43' W 118°12'0 0.0
2018-Jan-04 22:57N 33°43' W 118°12'0 0.0
2018-Jan-04 22:30N 33°43' W 118°12'0 0.1
2018-Jan-04 21:51N 33°43' W 118°12'0 0.1
2018-Jan-04 21:27N 33°43' W 118°12'0 0.0
2018-Jan-04 21:01N 33°43' W 118°12'0 0.0
2018-Jan-04 20:30N 33°43' W 118°12'0 0.1
2018-Jan-04 20:00N 33°43' W 118°12'0 0.1
2018-Jan-04 19:30N 33°43' W 118°12'0 0.0
2018-Jan-04 19:00N 33°43' W 118°12'0 0.0
2018-Jan-04 18:30N 33°43' W 118°12'0 0.0
2018-Jan-04 18:00N 33°43' W 118°12'0 0.1
2018-Jan-04 17:30N 33°43' W 118°12'0 0.0
2018-Jan-04 16:45N 33°43' W 118°12'0 0.1
2018-Jan-04 16:30N 33°43' W 118°12'0 0.1
2018-Jan-04 16:00N 33°43' W 118°12'0 0.1
2018-Jan-04 15:30N 33°43' W 118°12'1 0.6
2018-Jan-04 14:38N 33°42' W 118°12'1 5.9
2018-Jan-04 14:30N 33°42' W 118°13'3 6.0
2018-Jan-04 14:00N 33°43' W 118°16'1 0.4
2018-Jan-04 11:10N 33°44' W 118°16'0 0.0
2018-Jan-04 10:52N 33°44' W 118°16'0 0.0
2018-Jan-04 10:22N 33°44' W 118°16'0 0.0
2018-Jan-04 09:52N 33°44' W 118°16'0 0.0
2018-Jan-04 07:10N 33°44' W 118°16'0 0.0
2018-Jan-04 06:58N 33°44' W 118°16'0 0.0
2018-Jan-04 06:22N 33°44' W 118°16'0 0.0
2018-Jan-04 05:58N 33°44' W 118°16'0 0.0
2018-Jan-04 05:28N 33°44' W 118°16'0 0.0
2018-Jan-03 17:22N 33°44' W 118°16'0 0.0
2018-Jan-03 16:58N 33°44' W 118°16'0 0.0
2018-Jan-03 11:34N 33°44' W 118°16'0 0.0
2018-Jan-03 11:16N 33°44' W 118°16'0 0.0
2018-Jan-03 05:04N 33°44' W 118°16'0 0.0
2018-Jan-03 04:46N 33°44' W 118°16'0 0.0
2018-Jan-03 04:28N 33°44' W 118°16'0 0.0
2018-Jan-02 20:28N 33°44' W 118°16'0 0.0
2018-Jan-02 19:58N 33°44' W 118°16'0 0.0
2018-Jan-02 19:28N 33°44' W 118°16'0 0.0
2018-Jan-02 17:52N 33°44' W 118°16'0 0.0
2018-Jan-02 17:30N 33°44' W 118°16'0 0.0
2018-Jan-02 17:00N 33°44' W 118°16'0 0.1
2018-Jan-02 16:30N 33°44' W 118°16'0 1.0
2018-Jan-02 16:00N 33°44' W 118°16'2 3.0
2018-Jan-02 15:18N 33°43' W 118°14'0 0.0
2018-Jan-02 06:46N 33°43' W 118°14'0 0.1
2018-Jan-02 06:16N 33°43' W 118°14'0 0.2
2018-Jan-02 05:52N 33°43' W 118°14'1 4.1
2018-Jan-02 05:30N 33°45' W 118°13'6 0.2
2018-Jan-01 05:45N 33°39' W 118°11'2 7.8
2018-Jan-01 05:30N 33°37' W 118°10'611.6
2018-Jan-01 05:00N 33°32' W 118°08'1312.4
2018-Jan-01 03:59N 33°20' W 118°03'612.4
2018-Jan-01 03:28N 33°14' W 118°01'612.6
2018-Jan-01 03:00N 33°08' W 117°60'612.4
2018-Jan-01 02:30N 33°02' W 117°58'612.4
2018-Jan-01 02:00N 32°56' W 117°56'612.4
2018-Jan-01 01:30N 32°50' W 117°55'1312.5
2018-Jan-01 00:30N 32°38' W 117°51'24 3.9
2017-Dec-31 18:20N 32°14' W 117°45'0 0.6
2017-Dec-31 18:00N 32°14' W 117°45'0 0.4
2017-Dec-31 17:22N 32°15' W 117°45'511.4
2017-Dec-31 16:56N 32°10' W 117°44'2212.8
2017-Dec-31 15:11N 31°48' W 117°39'513.0
2017-Dec-31 14:50N 31°43' W 117°38'613.0
2017-Dec-31 14:22N 31°37' W 117°37'513.1
2017-Dec-31 14:00N 31°33' W 117°36'2913.2
2017-Dec-31 11:50N 31°04' W 117°30'413.1
2017-Dec-31 11:29N 30°60' W 117°29'1313.2
2017-Dec-31 10:29N 30°47' W 117°26'713.4
2017-Dec-31 10:00N 30°40' W 117°25'713.2
2017-Dec-31 09:30N 30°34' W 117°24'712.8
2017-Dec-31 08:59N 30°27' W 117°23'8013.0
2017-Dec-31 02:52N 29°09' W 117°06'2313.4
2017-Dec-31 01:11N 28°49' W 116°54'8813.2
2017-Dec-30 18:33N 27°33' W 116°04'112.8
2017-Dec-30 18:30N 27°32' W 116°04'1312.6
2017-Dec-30 17:27N 27°21' W 115°56'1712.6
2017-Dec-30 16:07N 27°06' W 115°47'  

Dump ship's entire track history